Terminal Aerodrome Forecast
Issued by NWS

Home | Current Version | Previous Version | Text Only | Print | Product List | Glossary On
Versions: 1 2 3 4 5 6 7 8 9 10 11 12 13
000
FTUS42 TJSJ 180500
TAFJSJ
TAF
TJSJ 180534Z 1806/1906 VRB04KT P6SM FEW025
     FM181400 05011KT P6SM FEW030
     FM182200 09008KT P6SM VCSH SCT030=

USA.gov is the U.S. government's official web portal to all federal, state and local government web resources and services.